Time;durP1;ratioP1;P1;durP2;ratioP2;P2;SDS_P1;SDS_P2;PMS_P1;PMS_P2;Temp;Humidity;BMP_temperature;BMP_pressure;BME280_temperature;BME280_humidity;BME280_pressure;Samples;Min_cycle;Max_cycle;Signal;HPM_P1;HPM_P2
2021/11/12 00:16:47;;;;;;;48.20;27.90;;;;;;;;;;4358990;32;20125;-70
2021/11/12 00:21:59;;;;;;;44.58;28.55;;;;;;;;;;4380744;32;20029;-71
2021/11/12 00:24:24;;;;;;;;;;;;;;;;;;4436918;32;20026;-71
2021/11/12 00:26:50;;;;;;;46.45;27.90;;;;;;;;;;4436839;32;20312;-70
2021/11/12 00:29:15;;;;;;;;;;;;;;;;;;4436375;32;20041;-71
2021/11/12 00:32:02;;;;;;;43.05;27.00;;;;;;;;;;4421844;32;20327;-71
2021/11/12 00:34:51;;;;;;;49.42;28.15;;;;;;;;;;4436676;32;20111;-71
2021/11/12 00:40:13;;;;;;;47.22;29.42;;;;;;;;;;4436244;32;20048;-71
2021/11/12 00:46:22;;;;;;;52.90;29.73;;;;;;;;;;4423372;32;20088;-71
2021/11/12 00:49:07;;;;;;;48.17;30.00;;;;;;;;;;4435894;32;20090;-71
2021/11/12 00:54:40;;;;;;;52.47;30.80;;;;;;;;;;4436203;32;20062;-71
2021/11/12 00:57:17;;;;;;;56.65;29.58;;;;;;;;;;4436419;32;20052;-71
2021/11/12 01:05:45;;;;;;;49.60;30.02;;;;;;;;;;4358896;33;20163;-71
2021/11/12 01:09:30;;;;;;;;;;;;;;;;;;;;;
2021/11/12 01:11:47;;;;;;;61.17;31.92;;;;;;;;;;4348755;33;20023;-71
2021/11/12 01:30:17;;;;;;;60.78;34.10;;;;;;;;;;4360677;32;20065;-71
2021/11/12 01:45:06;;;;;;;60.63;32.85;;;;;;;;;;4438756;32;20041;-71
2021/11/12 01:53:32;;;;;;;56.63;33.65;;;;;;;;;;4434064;32;20080;-71
2021/11/12 01:59:07;;;;;;;57.92;33.63;;;;;;;;;;4438329;32;20052;-70
2021/11/12 02:01:38;;;;;;;58.85;33.72;;;;;;;;;;4424038;32;20047;-71
2021/11/12 02:04:18;;;;;;;58.83;35.17;;;;;;;;;;4438376;32;20053;-71
2021/11/12 02:06:46;;;;;;;57.95;33.05;;;;;;;;;;4424248;32;20010;-71
2021/11/12 02:14:42;;;;;;;54.08;33.38;;;;;;;;;;4439191;32;20105;-71
2021/11/12 02:17:19;;;;;;;55.75;33.25;;;;;;;;;;4438124;32;20069;-70
2021/11/12 02:19:58;;;;;;;54.33;33.20;;;;;;;;;;4437693;32;20378;-71
2021/11/12 02:22:28;;;;;;;59.10;32.97;;;;;;;;;;4438748;32;20041;-71
2021/11/12 02:24:58;;;;;;;64.45;34.10;;;;;;;;;;4437871;32;20064;-70
2021/11/12 02:27:38;;;;;;;;;;;;;;;;;;;;;
2021/11/12 02:36:43;;;;;;;;;;;;;;;;;;;;;
2021/11/12 02:42:41;;;;;;;62.05;34.97;;;;;;;;;;4345456;33;20034;-71
2021/11/12 02:48:47;;;;;;;65.80;35.30;;;;;;;;;;4315537;33;20086;-70
2021/11/12 02:51:16;;;;;;;63.50;35.70;;;;;;;;;;4315972;33;20064;-71
2021/11/12 02:53:42;;;;;;;71.82;38.53;;;;;;;;;;4311178;33;20173;-70
2021/11/12 02:56:12;;;;;;;;;;;;;;;;;;4315885;33;20080;-71
2021/11/12 02:58:41;;;;;;;70.10;35.65;;;;;;;;;;4323827;33;20029;-70
2021/11/12 03:01:16;;;;;;;58.25;33.88;;;;;;;;;;4344827;33;20047;-71
2021/11/12 03:07:02;;;;;;;63.83;36.22;;;;;;;;;;4315549;33;20017;-71
2021/11/12 03:09:29;;;;;;;63.00;35.83;;;;;;;;;;4315481;33;20071;-70
2021/11/12 03:15:12;;;;;;;61.25;36.17;;;;;;;;;;4406607;32;20139;-70
2021/11/12 03:17:42;;;;;;;64.82;35.80;;;;;;;;;;4406861;32;20553;-71
2021/11/12 03:20:28;;;;;;;63.50;35.05;;;;;;;;;;4406697;32;20104;-71
2021/11/12 03:23:01;;;;;;;62.83;34.80;;;;;;;;;;4406969;32;20052;-71
2021/11/12 03:25:36;;;;;;;60.60;35.33;;;;;;;;;;4406769;32;20006;-71
2021/11/12 03:28:24;;;;;;;59.70;34.92;;;;;;;;;;4392787;32;20018;-71
2021/11/12 03:56:26;;;;;;;64.22;39.42;;;;;;;;;;4406187;32;20523;-71
2021/11/12 04:01:33;;;;;;;80.25;44.30;;;;;;;;;;4421226;32;20059;-71
2021/11/12 04:20:32;;;;;;;;;;;;;;;;;;4420989;32;20084;-72
2021/11/12 05:10:39;;;;;;;139.12;84.25;;;;;;;;;;4436134;32;20059;-71
2021/11/12 05:34:53;;;;;;;157.25;87.40;;;;;;;;;;4436032;32;20362;-72
2021/11/12 05:45:45;;;;;;;159.23;89.13;;;;;;;;;;4436183;32;20067;-71
2021/11/12 05:56:59;;;;;;;165.23;86.65;;;;;;;;;;4437537;32;20045;-71
2021/11/12 05:59:24;;;;;;;160.45;89.20;;;;;;;;;;4438077;32;20067;-71
2021/11/12 06:01:50;;;;;;;;;;;;;;;;;;4438595;32;20356;-72
2021/11/12 06:04:15;;;;;;;159.05;84.70;;;;;;;;;;4438726;32;19948;-71
2021/11/12 06:09:34;;;;;;;156.73;81.57;;;;;;;;;;4437922;32;20376;-71
2021/11/12 06:12:13;;;;;;;150.10;80.03;;;;;;;;;;4438065;32;20134;-71
2021/11/12 06:14:42;;;;;;;160.18;81.90;;;;;;;;;;4438301;32;20431;-71
2021/11/12 06:17:07;;;;;;;158.32;80.93;;;;;;;;;;4437872;32;20025;-72
2021/11/12 06:19:32;;;;;;;;;;;;;;;;;;4438705;32;20317;-71
2021/11/12 06:21:57;;;;;;;151.30;79.62;;;;;;;;;;4438068;32;19940;-71
2021/11/12 06:24:23;;;;;;;;;;;;;;;;;;4438295;32;20113;-71
2021/11/12 06:26:48;;;;;;;151.12;79.65;;;;;;;;;;4437582;32;19929;-71
2021/11/12 06:29:13;;;;;;;;;;;;;;;;;;4438187;32;20026;-71
2021/11/12 06:31:39;;;;;;;154.50;77.85;;;;;;;;;;4438542;32;19956;-71
2021/11/12 06:34:04;;;;;;;;;;;;;;;;;;4438194;32;20042;-72
2021/11/12 06:36:29;;;;;;;150.82;77.32;;;;;;;;;;4437927;32;19936;-73
2021/11/12 06:38:55;;;;;;;;;;;;;;;;;;4438864;32;20159;-72
2021/11/12 06:41:55;;;;;;;139.20;78.07;;;;;;;;;;4437292;32;19941;-72
2021/11/12 06:44:40;;;;;;;147.73;79.68;;;;;;;;;;4433793;32;20078;-72
2021/11/12 06:52:25;;;;;;;154.77;79.62;;;;;;;;;;4437796;32;20047;-72
2021/11/12 06:54:51;;;;;;;147.62;76.70;;;;;;;;;;4420701;32;20467;-71
2021/11/12 06:57:18;;;;;;;161.48;83.53;;;;;;;;;;4422269;32;20030;-71
2021/11/12 06:59:46;;;;;;;146.37;76.80;;;;;;;;;;4421967;32;20159;-71
2021/11/12 07:02:22;;;;;;;141.70;73.40;;;;;;;;;;4422354;32;20056;-71
2021/11/12 07:04:48;;;;;;;;;;;;;;;;;;4422122;32;20454;-71
2021/11/12 07:07:14;;;;;;;164.80;82.18;;;;;;;;;;4420736;32;19929;-72
2021/11/12 07:09:39;;;;;;;152.18;81.70;;;;;;;;;;4420887;32;20034;-71
2021/11/12 07:12:07;;;;;;;;;;;;;;;;;;4421718;32;20375;-71
2021/11/12 07:14:33;;;;;;;149.75;79.18;;;;;;;;;;4422203;32;19946;-70
2021/11/12 07:16:58;;;;;;;;;;;;;;;;;;4422601;32;20045;-71
2021/11/12 07:19:25;;;;;;;150.12;80.72;;;;;;;;;;4420135;32;19948;-71
2021/11/12 07:21:52;;;;;;;147.32;80.15;;;;;;;;;;4413626;32;20100;-71
2021/11/12 07:24:19;;;;;;;155.65;78.62;;;;;;;;;;4400008;32;20085;-71
2021/11/12 07:26:44;;;;;;;147.52;77.00;;;;;;;;;;4408493;32;20405;-70
2021/11/12 07:29:10;;;;;;;;;;;;;;;;;;4399072;32;20034;-71
2021/11/12 07:31:38;;;;;;;147.23;76.25;;;;;;;;;;4421373;32;19937;-71
2021/11/12 07:34:06;;;;;;;153.15;78.53;;;;;;;;;;4420260;32;20400;-70
2021/11/12 07:36:36;;;;;;;154.10;78.28;;;;;;;;;;4407009;32;20026;-72
2021/11/12 07:39:36;;;;;;;147.75;74.82;;;;;;;;;;4420729;32;20061;-70
2021/11/12 07:49:26;;;;;;;;;;;;;;;;;;4410978;32;20030;-71
2021/11/12 07:51:52;;;;;;;236.55;103.40;;;;;;;;;;4420693;32;19937;-72
2021/11/12 07:54:17;;;;;;;;;;;;;;;;;;4421352;32;20390;-72
2021/11/12 07:56:43;;;;;;;231.57;93.80;;;;;;;;;;4421167;32;19933;-72
2021/11/12 07:59:08;;;;;;;;;;;;;;;;;;4406361;32;20034;-73
2021/11/12 08:01:34;;;;;;;307.37;109.07;;;;;;;;;;4404864;32;19961;-72
2021/11/12 08:04:01;;;;;;;;;;;;;;;;;;4406522;32;20026;-71
2021/11/12 08:06:28;;;;;;;;;;;;;;;;;;4405657;32;19950;-72
2021/11/12 08:12:29;;;;;;;332.35;105.12;;;;;;;;;;4401767;32;20216;-71
2021/11/12 08:20:50;;;;;;;453.55;118.57;;;;;;;;;;4372257;32;20422;-71
2021/11/12 08:23:31;;;;;;;273.30;102.87;;;;;;;;;;4395794;32;20064;-71
2021/11/12 08:26:31;;;;;;;254.93;97.85;;;;;;;;;;4405360;32;20014;-72
2021/11/12 08:34:22;;;;;;;217.98;93.53;;;;;;;;;;4404572;32;20034;-72
2021/11/12 08:42:29;;;;;;;;;;;;;;;;;;;;;
2021/11/12 08:45:05;;;;;;;223.55;96.72;;;;;;;;;;4400952;32;20050;-70
2021/11/12 08:47:39;;;;;;;203.20;88.28;;;;;;;;;;4388684;32;20466;-72
2021/11/12 08:50:07;;;;;;;224.48;95.75;;;;;;;;;;4401651;32;20030;-72
2021/11/12 08:52:39;;;;;;;253.27;103.78;;;;;;;;;;4403012;32;20035;-71
2021/11/12 08:55:07;;;;;;;205.12;94.80;;;;;;;;;;4408975;32;20046;-72
2021/11/12 08:57:33;;;;;;;197.98;92.75;;;;;;;;;;4419180;32;20072;-72
2021/11/12 08:59:58;;;;;;;;;;;;;;;;;;4419979;32;20038;-71
2021/11/12 09:02:52;;;;;;;174.18;83.07;;;;;;;;;;4419462;32;19957;-71
2021/11/12 09:05:19;;;;;;;171.75;84.30;;;;;;;;;;4420206;32;20055;-72
2021/11/12 09:11:22;;;;;;;150.50;74.70;;;;;;;;;;4410430;32;20058;-72
2021/11/12 09:13:26;;;;;;;142.23;70.12;;;;;;;;;;4408166;32;20439;-72
2021/11/12 09:15:54;;;;;;;169.95;73.57;;;;;;;;;;4419272;32;20030;-71
2021/11/12 09:18:23;;;;;;;143.90;69.32;;;;;;;;;;4418575;32;20060;-72
2021/11/12 09:21:00;;;;;;;149.57;68.53;;;;;;;;;;4419437;32;20088;-73
2021/11/12 09:23:35;;;;;;;142.65;65.78;;;;;;;;;;4419957;32;20023;-72
2021/11/12 09:26:00;;;;;;;150.70;64.10;;;;;;;;;;4419178;32;20106;-72
2021/11/12 09:28:26;;;;;;;;;;;;;;;;;;4420366;32;20030;-69
2021/11/12 09:30:51;;;;;;;148.10;65.00;;;;;;;;;;4420935;32;19965;-71
2021/11/12 09:33:19;;;;;;;;;;;;;;;;;;4422723;32;20026;-72
2021/11/12 09:35:44;;;;;;;146.45;69.43;;;;;;;;;;4423372;32;19941;-71
2021/11/12 09:38:09;;;;;;;;;;;;;;;;;;4422654;32;20114;-72
2021/11/12 09:40:35;;;;;;;128.18;59.88;;;;;;;;;;4418252;32;19959;-71
2021/11/12 09:43:00;;;;;;;;;;;;;;;;;;4407303;32;20185;-70
2021/11/12 09:45:28;;;;;;;111.30;58.00;;;;;;;;;;4406294;32;19984;-72
2021/11/12 09:48:01;;;;;;;128.40;64.07;;;;;;;;;;4407459;32;20126;-71
2021/11/12 09:50:29;;;;;;;110.43;58.42;;;;;;;;;;4424299;32;20040;-72
2021/11/12 09:52:55;;;;;;;103.00;56.47;;;;;;;;;;4422352;32;20030;-71
2021/11/12 09:55:20;;;;;;;;;;;;;;;;;;4422905;32;20181;-73
2021/11/12 09:57:45;;;;;;;102.62;55.25;;;;;;;;;;4410366;32;20003;-70
2021/11/12 10:00:10;;;;;;;;;;;;;;;;;;4419324;32;20520;-71
2021/11/12 10:02:43;;;;;;;105.30;53.78;;;;;;;;;;4393839;32;19945;-71
2021/11/12 10:05:13;;;;;;;100.87;56.75;;;;;;;;;;4422174;32;20022;-74
2021/11/12 10:07:39;;;;;;;98.85;54.38;;;;;;;;;;4417861;32;20426;-72
2021/11/12 10:10:04;;;;;;;;;;;;;;;;;;4422399;32;20026;-72
2021/11/12 10:12:46;;;;;;;104.20;54.50;;;;;;;;;;4421357;32;19933;-72
2021/11/12 10:15:24;;;;;;;102.32;57.10;;;;;;;;;;4422012;32;20348;-72
2021/11/12 10:17:51;;;;;;;96.80;54.60;;;;;;;;;;4421867;32;20049;-70
2021/11/12 10:20:18;;;;;;;107.53;57.70;;;;;;;;;;4422581;32;20030;-72
2021/11/12 10:22:45;;;;;;;107.95;58.72;;;;;;;;;;4421984;32;20030;-72
2021/11/12 10:25:11;;;;;;;95.50;54.22;;;;;;;;;;4407177;32;20026;-73
2021/11/12 10:27:37;;;;;;;102.95;54.65;;;;;;;;;;4408895;32;20076;-72
2021/11/12 10:30:03;;;;;;;;;;;;;;;;;;4409126;32;20033;-71
2021/11/12 10:32:30;;;;;;;95.70;53.25;;;;;;;;;;4422614;32;19929;-72
2021/11/12 10:35:01;;;;;;;94.85;53.08;;;;;;;;;;4421954;32;20377;-71
2021/11/12 10:37:31;;;;;;;96.72;54.40;;;;;;;;;;4422509;32;20091;-72
2021/11/12 10:40:04;;;;;;;94.00;53.38;;;;;;;;;;4422152;32;20052;-72
2021/11/12 10:42:30;;;;;;;86.95;50.30;;;;;;;;;;4421646;32;20379;-72
2021/11/12 10:45:16;;;;;;;91.50;50.85;;;;;;;;;;4421664;32;20056;-71
2021/11/12 10:48:17;;;;;;;83.78;48.83;;;;;;;;;;4421137;32;20038;-72
2021/11/12 10:50:42;;;;;;;80.82;50.45;;;;;;;;;;4418741;32;20030;-71
2021/11/12 10:53:08;;;;;;;;;;;;;;;;;;4421460;32;20092;-71
2021/11/12 10:55:35;;;;;;;76.80;45.35;;;;;;;;;;4425140;32;20185;-73
2021/11/12 10:58:03;;;;;;;80.28;47.10;;;;;;;;;;4437007;32;20405;-70
2021/11/12 11:00:31;;;;;;;69.43;43.30;;;;;;;;;;4436846;32;20065;-71
2021/11/12 11:03:16;;;;;;;64.47;39.70;;;;;;;;;;4437044;32;20052;-71
2021/11/12 11:06:02;;;;;;;62.10;39.17;;;;;;;;;;4436611;32;20044;-72
2021/11/12 11:08:50;;;;;;;65.82;39.28;;;;;;;;;;4436823;32;20050;-72
2021/11/12 11:11:16;;;;;;;65.40;38.35;;;;;;;;;;4436689;32;20066;-72
2021/11/12 11:13:41;;;;;;;;;;;;;;;;;;4422281;32;20026;-72
2021/11/12 11:16:08;;;;;;;60.60;36.60;;;;;;;;;;4436709;32;20266;-71
2021/11/12 11:18:40;;;;;;;56.92;36.00;;;;;;;;;;4435953;32;20090;-72
2021/11/12 11:23:31;;;;;;;;;;;;;;;;;;4436617;32;20179;-72
2021/11/12 11:25:58;;;;;;;58.58;36.03;;;;;;;;;;4435999;32;20331;-72
2021/11/12 11:28:45;;;;;;;49.50;32.65;;;;;;;;;;4435736;32;20060;-72
2021/11/12 11:31:29;;;;;;;53.15;34.05;;;;;;;;;;4406044;32;20033;-73
2021/11/12 11:33:55;;;;;;;50.67;33.13;;;;;;;;;;4409209;32;20056;-72
2021/11/12 11:36:20;;;;;;;;;;;;;;;;;;4405757;32;20360;-71
2021/11/12 11:38:46;;;;;;;53.90;34.20;;;;;;;;;;4388877;32;19960;-71
2021/11/12 11:41:11;;;;;;;;;;;;;;;;;;4405573;32;20098;-72
2021/11/12 11:43:36;;;;;;;50.08;33.47;;;;;;;;;;4404778;32;19936;-72
2021/11/12 11:46:01;;;;;;;;;;;;;;;;;;4406950;32;20022;-73
2021/11/12 11:48:30;;;;;;;55.00;35.97;;;;;;;;;;4393620;32;20322;-71
2021/11/12 11:50:57;;;;;;;54.13;34.58;;;;;;;;;;4373586;32;20326;-72
2021/11/12 11:53:30;;;;;;;53.10;34.30;;;;;;;;;;4388079;32;20062;-72
2021/11/12 11:56:11;;;;;;;50.03;34.95;;;;;;;;;;4376465;32;20102;-71
2021/11/12 11:58:42;;;;;;;51.20;33.17;;;;;;;;;;4390511;32;20023;-71
2021/11/12 12:01:10;;;;;;;48.25;32.60;;;;;;;;;;4389840;32;20033;-71
2021/11/12 12:03:43;;;;;;;51.30;34.00;;;;;;;;;;4389807;32;20354;-72
2021/11/12 12:06:28;;;;;;;53.22;34.10;;;;;;;;;;4390325;32;20101;-72
2021/11/12 12:09:18;;;;;;;58.22;35.17;;;;;;;;;;4388735;32;20043;-72
2021/11/12 12:12:22;;;;;;;54.55;35.17;;;;;;;;;;4388706;32;20030;-71
2021/11/12 12:14:48;;;;;;;54.97;35.42;;;;;;;;;;4389545;32;20075;-72
2021/11/12 12:20:34;;;;;;;51.20;33.40;;;;;;;;;;4389419;32;20354;-72
2021/11/12 12:36:01;;;;;;;51.13;33.90;;;;;;;;;;4327763;33;20103;-72
2021/11/12 12:39:35;;;;;;;48.72;35.25;;;;;;;;;;4391256;32;20046;-72
2021/11/12 12:42:06;;;;;;;53.42;33.92;;;;;;;;;;4404075;32;20097;-71
2021/11/12 13:21:01;;;;;;;44.47;28.58;;;;;;;;;;4407759;32;20049;-71
2021/11/12 13:24:04;;;;;;;39.45;28.80;;;;;;;;;;4408535;32;20018;-72
2021/11/12 13:26:29;;;;;;;45.47;28.75;;;;;;;;;;4408097;32;20018;-72
2021/11/12 13:29:07;;;;;;;;;;;;;;;;;;4407690;32;20060;-71
2021/11/12 13:31:34;;;;;;;42.50;28.05;;;;;;;;;;4393686;32;19967;-72
2021/11/12 13:34:02;;;;;;;42.05;27.50;;;;;;;;;;4408177;32;20042;-72
2021/11/12 13:36:32;;;;;;;46.65;27.62;;;;;;;;;;4407796;32;20031;-71
2021/11/12 13:39:05;;;;;;;37.08;26.75;;;;;;;;;;4407001;32;20052;-71
2021/11/12 13:41:35;;;;;;;39.35;26.55;;;;;;;;;;4395054;32;20038;-71
2021/11/12 13:44:06;;;;;;;37.92;26.25;;;;;;;;;;4407370;32;20061;-71
2021/11/12 13:47:08;;;;;;;37.95;25.75;;;;;;;;;;4407323;32;20161;-72
2021/11/12 13:49:59;;;;;;;34.60;24.48;;;;;;;;;;4407346;32;20054;-73
2021/11/12 13:55:20;;;;;;;40.92;27.48;;;;;;;;;;4406604;32;20068;-70
2021/11/12 13:57:53;;;;;;;39.78;26.80;;;;;;;;;;4400404;32;20474;-73
2021/11/12 14:00:31;;;;;;;35.67;26.55;;;;;;;;;;4398251;32;20121;-70
2021/11/12 14:03:18;;;;;;;41.05;27.48;;;;;;;;;;4407678;32;20031;-71
2021/11/12 14:06:09;;;;;;;41.37;27.25;;;;;;;;;;4305290;33;20024;-71
2021/11/12 14:08:36;;;;;;;36.80;25.75;;;;;;;;;;4321067;32;20151;-70
2021/11/12 14:11:10;;;;;;;43.00;27.35;;;;;;;;;;4392558;32;20070;-72
2021/11/12 14:13:39;;;;;;;38.22;26.08;;;;;;;;;;4398842;32;20038;-71
2021/11/12 14:16:24;;;;;;;36.42;24.40;;;;;;;;;;4376538;32;20057;-70
2021/11/12 14:25:08;;;;;;;38.65;26.55;;;;;;;;;;4389080;32;20087;-70
2021/11/12 14:27:52;;;;;;;40.55;25.88;;;;;;;;;;4386832;32;20049;-70
2021/11/12 14:33:14;;;;;;;;;;;;;;;;;;4392561;32;20015;-70
2021/11/12 14:38:27;;;;;;;38.63;24.80;;;;;;;;;;4392329;32;20469;-70
2021/11/12 14:43:34;;;;;;;37.08;25.98;;;;;;;;;;4391915;32;20042;-71
2021/11/12 14:46:12;;;;;;;36.15;24.85;;;;;;;;;;4392143;32;20026;-70
2021/11/12 14:48:45;;;;;;;41.22;24.05;;;;;;;;;;4392417;32;20056;-70
2021/11/12 14:51:14;;;;;;;35.00;23.48;;;;;;;;;;4392083;32;20031;-71
2021/11/12 14:53:42;;;;;;;36.03;23.52;;;;;;;;;;4391326;32;20050;-70
2021/11/12 14:56:15;;;;;;;36.83;24.30;;;;;;;;;;4391339;32;20092;-70
2021/11/12 14:58:58;;;;;;;38.50;24.05;;;;;;;;;;4392100;32;20101;-70
2021/11/12 15:01:26;;;;;;;36.60;23.20;;;;;;;;;;4380141;32;20030;-71
2021/11/12 15:04:04;;;;;;;;;;;;;;;;;;;;;
2021/11/12 15:06:51;;;;;;;;;;;;;;;;;;;;;
2021/11/12 15:09:21;;;;;;;35.15;23.45;;;;;;;;;;4408399;32;20173;-70
2021/11/12 15:11:49;;;;;;;36.30;22.85;;;;;;;;;;4407096;32;20057;-70
2021/11/12 15:14:19;;;;;;;37.83;25.08;;;;;;;;;;4406611;32;20022;-70
2021/11/12 15:16:45;;;;;;;33.67;23.70;;;;;;;;;;4400059;32;20035;-71
2021/11/12 15:19:16;;;;;;;42.85;24.70;;;;;;;;;;4391116;32;20052;-70
2021/11/12 15:31:47;;;;;;;36.25;24.20;;;;;;;;;;4391446;32;20384;-70
2021/11/12 15:34:13;;;;;;;38.38;22.58;;;;;;;;;;4392056;32;20349;-70
2021/11/12 15:36:58;;;;;;;;;;;;;;;;;;4391525;32;20125;-71
2021/11/12 15:39:34;;;;;;;38.20;22.13;;;;;;;;;;4391422;32;19983;-71
2021/11/12 15:44:35;;;;;;;34.90;21.90;;;;;;;;;;4389831;32;20034;-70
2021/11/12 15:47:09;;;;;;;34.47;23.73;;;;;;;;;;4390365;32;20023;-70
2021/11/12 15:49:37;;;;;;;32.50;20.33;;;;;;;;;;4391648;32;20034;-70
2021/11/12 16:05:45;;;;;;;;;;;;;;;;;;4406017;32;20119;-70
2021/11/12 16:08:26;;;;;;;34.53;19.33;;;;;;;;;;4404912;32;19964;-70
2021/11/12 16:11:14;;;;;;;29.73;18.95;;;;;;;;;;4406481;32;20038;-71
2021/11/12 16:13:55;;;;;;;29.67;19.83;;;;;;;;;;4406003;32;20030;-69
2021/11/12 16:19:16;;;;;;;28.45;17.35;;;;;;;;;;4391047;32;20416;-70
2021/11/12 16:26:56;;;;;;;;;;;;;;;;;;4399696;32;20367;-70
2021/11/12 16:32:07;;;;;;;27.62;17.92;;;;;;;;;;4390312;32;20045;-70
2021/11/12 16:34:39;;;;;;;33.03;17.00;;;;;;;;;;4390695;32;20356;-70
2021/11/12 16:37:06;;;;;;;30.83;18.58;;;;;;;;;;4391123;32;20064;-70
2021/11/12 16:39:38;;;;;;;27.13;18.02;;;;;;;;;;4389987;32;20383;-70
2021/11/12 16:47:25;;;;;;;23.55;16.90;;;;;;;;;;4402932;32;20022;-70
2021/11/12 16:55:28;;;;;;;29.37;16.40;;;;;;;;;;4404957;32;20104;-71
2021/11/12 17:03:30;;;;;;;28.27;16.67;;;;;;;;;;4328362;33;20056;-70
2021/11/12 17:08:36;;;;;;;;;;;;;;;;;;4405868;32;20094;-69
2021/11/12 17:11:16;;;;;;;23.80;16.30;;;;;;;;;;4405168;32;19949;-69
2021/11/12 17:14:02;;;;;;;25.42;16.55;;;;;;;;;;4391898;32;20018;-70
2021/11/12 17:19:28;;;;;;;24.40;15.93;;;;;;;;;;4406135;32;20053;-70
2021/11/12 17:46:39;;;;;;;24.77;17.58;;;;;;;;;;4405776;32;20454;-70
2021/11/12 17:49:17;;;;;;;30.95;19.77;;;;;;;;;;4405027;32;20052;-70
2021/11/12 18:08:16;;;;;;;28.15;18.42;;;;;;;;;;4407923;32;20040;-69
2021/11/12 18:16:26;;;;;;;26.02;17.58;;;;;;;;;;4407190;32;20375;-70
2021/11/12 21:43:58;;;;;;;33.90;23.23;;;;;;;;;;4394204;32;20065;-70
2021/11/12 21:46:27;;;;;;;36.38;21.73;;;;;;;;;;4393409;32;20040;-71
2021/11/12 21:48:58;;;;;;;37.10;22.42;;;;;;;;;;4392751;32;20050;-71
2021/11/12 21:51:39;;;;;;;35.88;23.30;;;;;;;;;;4406877;32;20050;-71
2021/11/12 21:54:05;;;;;;;36.28;23.80;;;;;;;;;;4407661;32;20060;-70
2021/11/12 21:56:31;;;;;;;;;;;;;;;;;;4394981;32;20042;-70
2021/11/12 21:58:56;;;;;;;39.38;25.27;;;;;;;;;;4407987;32;19938;-70
2021/11/12 22:01:25;;;;;;;;;;;;;;;;;;4407423;32;20026;-71
2021/11/12 22:03:50;;;;;;;47.40;26.35;;;;;;;;;;4407443;32;19937;-70
2021/11/12 22:06:15;;;;;;;;;;;;;;;;;;4408677;32;20050;-70
2021/11/12 22:08:41;;;;;;;45.25;26.05;;;;;;;;;;4407697;32;19998;-71
2021/11/12 22:11:06;;;;;;;;;;;;;;;;;;4408203;32;20164;-70
2021/11/12 22:13:39;;;;;;;47.78;27.33;;;;;;;;;;4408865;32;19934;-70
2021/11/12 22:16:14;;;;;;;40.50;26.15;;;;;;;;;;4407936;32;20118;-70
2021/11/12 22:18:43;;;;;;;45.97;25.93;;;;;;;;;;4407720;32;20030;-69
2021/11/12 22:21:08;;;;;;;49.53;25.77;;;;;;;;;;4407150;32;20122;-70
2021/11/12 22:23:34;;;;;;;;;;;;;;;;;;4407313;32;20074;-70
2021/11/12 22:25:59;;;;;;;58.45;30.95;;;;;;;;;;4406919;32;20310;-70
2021/11/12 22:28:25;;;;;;;;;;;;;;;;;;4407196;32;20056;-70
2021/11/12 22:30:54;;;;;;;57.53;34.80;;;;;;;;;;4392881;32;20307;-72
2021/11/12 22:33:19;;;;;;;66.80;37.65;;;;;;;;;;4393490;32;20085;-72
2021/11/12 22:35:44;;;;;;;;;;;;;;;;;;4407172;32;20103;-72
2021/11/12 22:38:10;;;;;;;65.20;36.00;;;;;;;;;;4407219;32;19965;-71
2021/11/12 22:40:35;;;;;;;;;;;;;;;;;;4408825;32;20146;-72
2021/11/12 22:43:00;;;;;;;63.13;35.42;;;;;;;;;;4392914;32;19960;-71
2021/11/12 22:45:26;;;;;;;;;;;;;;;;;;4393492;32;20126;-71
2021/11/12 22:47:51;;;;;;;61.97;36.53;;;;;;;;;;4406617;32;19993;-71
2021/11/12 22:50:16;;;;;;;;;;;;;;;;;;4406950;32;20034;-72
2021/11/12 22:52:44;;;;;;;70.85;37.70;;;;;;;;;;4393153;32;19947;-72
2021/11/12 22:55:11;;;;;;;62.45;35.90;;;;;;;;;;4406398;32;20161;-72
2021/11/12 22:57:36;;;;;;;64.32;38.85;;;;;;;;;;4405719;32;20435;-72
2021/11/12 23:00:04;;;;;;;;;;;;;;;;;;4406424;32;20097;-71
2021/11/12 23:02:30;;;;;;;73.12;40.00;;;;;;;;;;4392016;32;19983;-71
2021/11/12 23:04:56;;;;;;;;;;;;;;;;;;4405950;32;20046;-71
2021/11/12 23:07:21;;;;;;;69.03;38.63;;;;;;;;;;4406466;32;19945;-69
2021/11/12 23:09:47;;;;;;;;;;;;;;;;;;4406833;32;20052;-71
2021/11/12 23:12:12;;;;;;;72.85;37.13;;;;;;;;;;4392170;32;20259;-71
2021/11/12 23:14:38;;;;;;;;;;;;;;;;;;4406968;32;20073;-72
2021/11/12 23:17:03;;;;;;;59.67;36.92;;;;;;;;;;4392802;32;19949;-71
2021/11/12 23:19:28;;;;;;;;;;;;;;;;;;4406800;32;20103;-72
2021/11/12 23:21:54;;;;;;;65.25;37.65;;;;;;;;;;4407104;32;19934;-72
2021/11/12 23:24:19;;;;;;;;;;;;;;;;;;4407215;32;20158;-69
2021/11/12 23:29:51;;;;;;;68.12;39.28;;;;;;;;;;4380145;32;20087;-72
2021/11/12 23:32:17;;;;;;;;;;;;;;;;;;4406909;32;20395;-72
2021/11/12 23:34:42;;;;;;;70.10;39.30;;;;;;;;;;4405819;32;20290;-72
2021/11/12 23:40:05;;;;;;;70.90;41.65;;;;;;;;;;4407021;32;20051;-72
2021/11/12 23:45:28;;;;;;;83.05;43.80;;;;;;;;;;4394988;32;20022;-72
2021/11/12 23:47:56;;;;;;;66.03;38.78;;;;;;;;;;4406003;32;20034;-72
2021/11/12 23:54:05;;;;;;;;;;;;;;;;;;;;;
2021/11/12 23:56:55;;;;;;;65.55;38.35;;;;;;;;;;4256613;33;20083;-73
